createdAt,value
2017-05-26T00:00:30.137Z,0
2017-05-26T00:01:39.031Z,0
2017-05-26T00:02:47.923Z,0
2017-05-26T00:03:56.817Z,0
2017-05-26T00:05:06.092Z,0
2017-05-26T00:06:15.306Z,0
2017-05-26T00:07:24.199Z,0
2017-05-26T00:08:33.572Z,0
2017-05-26T00:09:42.794Z,0
2017-05-26T00:10:51.687Z,0
2017-05-26T00:12:00.911Z,0
2017-05-26T00:13:10.127Z,0
2017-05-26T00:14:19.502Z,0
2017-05-26T00:15:28.394Z,0
2017-05-26T00:16:37.298Z,0
2017-05-26T00:17:46.840Z,0
2017-05-26T00:18:56.390Z,0
2017-05-26T00:20:05.982Z,0
2017-05-26T00:21:14.874Z,0
2017-05-26T00:22:23.768Z,0
2017-05-26T00:23:33.309Z,0
2017-05-26T00:24:42.524Z,0
2017-05-26T00:25:51.794Z,0
2017-05-26T00:27:01.661Z,0
2017-05-26T00:28:10.553Z,0
2017-05-26T00:29:19.768Z,0
2017-05-26T00:30:28.662Z,0
2017-05-26T00:31:38.499Z,0
2017-05-26T00:32:47.720Z,0
2017-05-26T00:33:56.611Z,0
2017-05-26T00:35:06.148Z,0
2017-05-26T00:36:15.363Z,0
2017-05-26T00:37:24.729Z,0
2017-05-26T00:38:33.947Z,0
2017-05-26T00:39:43.815Z,0
2017-05-26T00:40:52.706Z,0
2017-05-26T00:42:01.922Z,0
2017-05-26T00:43:11.066Z,0
2017-05-26T00:44:20.614Z,0
2017-05-26T00:45:29.507Z,0
2017-05-26T00:46:38.399Z,0
2017-05-26T00:47:47.674Z,0
2017-05-26T00:48:56.889Z,0
2017-05-26T00:50:06.103Z,0
2017-05-26T00:51:15.646Z,0
2017-05-26T00:52:24.539Z,0
2017-05-26T00:53:33.751Z,0
2017-05-26T00:54:43.115Z,0
2017-05-26T00:55:52.334Z,0
2017-05-26T00:57:01.551Z,0
2017-05-26T00:58:10.438Z,0
2017-05-26T00:59:19.654Z,0
2017-05-26T01:00:29.020Z,0
2017-05-26T01:01:37.969Z,0
2017-05-26T01:02:46.859Z,0
2017-05-26T01:03:56.402Z,0
2017-05-26T01:05:05.943Z,0
2017-05-26T01:06:14.939Z,0
2017-05-26T01:07:24.486Z,0
2017-05-26T01:08:33.703Z,0
2017-05-26T01:09:42.928Z,0
2017-05-26T01:10:52.467Z,0
2017-05-26T01:12:01.506Z,0
2017-05-26T01:13:10.723Z,0
2017-05-26T01:14:19.624Z,0
2017-05-26T01:15:28.515Z,0
2017-05-26T01:16:37.410Z,0
2017-05-26T01:17:46.791Z,0
2017-05-26T01:18:56.658Z,0
2017-05-26T01:20:05.556Z,0
2017-05-26T01:21:14.445Z,0
2017-05-26T01:22:23.664Z,0
2017-05-26T01:23:33.255Z,0
2017-05-26T01:24:42.792Z,0
2017-05-26T01:25:51.683Z,0
2017-05-26T01:27:00.906Z,0
2017-05-26T01:28:10.121Z,0
2017-05-26T01:29:19.669Z,0
2017-05-26T01:30:28.554Z,0
2017-05-26T01:31:37.773Z,0
2017-05-26T01:32:46.992Z,0
2017-05-26T01:33:56.206Z,0
2017-05-26T01:35:05.475Z,0
2017-05-26T01:36:15.018Z,0
2017-05-26T01:37:24.261Z,0
2017-05-26T01:38:33.474Z,0
2017-05-26T01:39:42.686Z,0
2017-05-26T01:40:52.759Z,0
2017-05-26T01:42:01.648Z,0
2017-05-26T01:43:11.515Z,0
2017-05-26T01:44:21.059Z,0
2017-05-26T01:45:30.281Z,0
2017-05-26T01:46:39.646Z,0
2017-05-26T01:47:48.869Z,0
2017-05-26T01:48:57.763Z,0
2017-05-26T01:50:06.977Z,0
2017-05-26T01:51:16.199Z,0
2017-05-26T01:52:25.241Z,0
2017-05-26T01:53:34.786Z,0
2017-05-26T01:54:43.673Z,0
2017-05-26T01:55:53.211Z,0
2017-05-26T01:57:02.102Z,0
2017-05-26T01:58:11.421Z,0
2017-05-26T01:59:20.643Z,0
2017-05-26T02:00:29.857Z,0
2017-05-26T02:01:38.747Z,0
2017-05-26T02:02:47.967Z,0
2017-05-26T02:03:57.162Z,0
2017-05-26T02:05:06.700Z,0
2017-05-26T02:06:16.240Z,0
2017-05-26T02:07:25.130Z,0
2017-05-26T02:08:34.346Z,0
2017-05-26T02:09:44.360Z,0
2017-05-26T02:10:53.253Z,0
2017-05-26T02:12:02.153Z,0
2017-05-26T02:13:11.697Z,0
2017-05-26T02:14:20.916Z,0
2017-05-26T02:15:30.136Z,0
2017-05-26T02:16:39.028Z,0
2017-05-26T02:17:48.572Z,0
2017-05-26T02:18:57.786Z,0
2017-05-26T02:20:06.689Z,0
2017-05-26T02:21:15.742Z,0
2017-05-26T02:22:25.282Z,0
2017-05-26T02:23:34.181Z,0
2017-05-26T02:24:43.072Z,0
2017-05-26T02:25:51.965Z,0
2017-05-26T02:27:01.604Z,0
2017-05-26T02:28:10.493Z,0
2017-05-26T02:29:20.037Z,0
2017-05-26T02:30:28.930Z,0
2017-05-26T02:31:37.819Z,0
2017-05-26T02:32:47.293Z,0
2017-05-26T02:33:56.185Z,4
2017-05-26T02:35:05.071Z,0
2017-05-26T02:36:13.967Z,0
2017-05-26T02:37:23.508Z,4
2017-05-26T02:38:32.830Z,4
2017-05-26T02:39:42.050Z,4
2017-05-26T02:40:51.266Z,4
2017-05-26T02:42:01.136Z,4
2017-05-26T02:43:10.025Z,4
2017-05-26T02:44:19.568Z,8
2017-05-26T02:45:28.782Z,8
2017-05-26T02:46:37.680Z,8
2017-05-26T02:47:46.898Z,8
2017-05-26T02:48:56.113Z,8
2017-05-26T02:50:05.485Z,12
2017-05-26T02:51:14.702Z,12
2017-05-26T02:52:24.245Z,12
2017-05-26T02:53:33.788Z,12
2017-05-26T02:54:43.005Z,16
2017-05-26T02:55:52.424Z,20
2017-05-26T02:57:01.324Z,24
2017-05-26T02:58:10.543Z,28
2017-05-26T02:59:19.759Z,28
2017-05-26T03:00:28.974Z,28
2017-05-26T03:01:38.014Z,36
2017-05-26T03:02:48.209Z,36
2017-05-26T03:03:57.751Z,44
2017-05-26T03:05:07.029Z,44
2017-05-26T03:06:15.916Z,52
2017-05-26T03:07:25.517Z,60
2017-05-26T03:08:34.733Z,64
2017-05-26T03:09:43.949Z,68
2017-05-26T03:10:53.165Z,80
2017-05-26T03:12:02.064Z,92
2017-05-26T03:13:11.288Z,112
2017-05-26T03:14:20.181Z,124
2017-05-26T03:15:29.433Z,128
2017-05-26T03:16:39.293Z,132
2017-05-26T03:17:48.507Z,136
2017-05-26T03:18:57.982Z,152
2017-05-26T03:20:06.871Z,156
2017-05-26T03:21:15.762Z,164
2017-05-26T03:22:24.974Z,176
2017-05-26T03:23:34.200Z,192
2017-05-26T03:24:43.842Z,200
2017-05-26T03:25:53.071Z,212
2017-05-26T03:27:02.613Z,224
2017-05-26T03:28:11.838Z,232
2017-05-26T03:29:20.737Z,232
2017-05-26T03:30:30.278Z,240
2017-05-26T03:31:39.172Z,260
2017-05-26T03:32:48.391Z,272
2017-05-26T03:33:57.607Z,268
2017-05-26T03:35:07.149Z,268
2017-05-26T03:36:16.190Z,288
2017-05-26T03:37:25.085Z,300
2017-05-26T03:38:33.979Z,312
2017-05-26T03:39:43.850Z,328
2017-05-26T03:40:53.781Z,348
2017-05-26T03:42:03.348Z,368
2017-05-26T03:43:12.566Z,368
2017-05-26T03:44:22.436Z,396
2017-05-26T03:45:31.332Z,416
2017-05-26T03:46:40.548Z,424
2017-05-26T03:47:49.648Z,428
2017-05-26T03:48:59.513Z,432
2017-05-26T03:50:08.403Z,480
2017-05-26T03:51:17.618Z,488
2017-05-26T03:52:26.837Z,512
2017-05-26T03:53:35.730Z,504
2017-05-26T03:54:45.274Z,544
2017-05-26T03:55:54.494Z,544
2017-05-26T03:57:03.389Z,528
2017-05-26T03:58:12.609Z,524
2017-05-26T03:59:21.886Z,548
2017-05-26T04:00:30.779Z,528
2017-05-26T04:01:40.009Z,548
2017-05-26T04:02:48.906Z,568
2017-05-26T04:03:58.457Z,608
2017-05-26T04:05:07.401Z,648
2017-05-26T04:06:16.616Z,640
2017-05-26T04:07:26.153Z,680
2017-05-26T04:08:35.046Z,736
2017-05-26T04:09:44.591Z,860
2017-05-26T04:10:54.131Z,968
2017-05-26T04:12:03.349Z,1016
2017-05-26T04:13:12.241Z,972
2017-05-26T04:14:21.789Z,972
2017-05-26T04:15:30.684Z,924
2017-05-26T04:16:40.704Z,956
2017-05-26T04:17:50.261Z,972
2017-05-26T04:19:00.134Z,1000
2017-05-26T04:20:09.030Z,1076
2017-05-26T04:21:18.244Z,1136
2017-05-26T04:22:27.711Z,1136
2017-05-26T04:23:37.251Z,1132
2017-05-26T04:24:46.804Z,1176
2017-05-26T04:25:56.669Z,1096
2017-05-26T04:27:05.884Z,1040
2017-05-26T04:28:15.584Z,1088
2017-05-26T04:29:24.804Z,1172
2017-05-26T04:30:33.702Z,1212
2017-05-26T04:31:42.654Z,1272
2017-05-26T04:32:52.207Z,1264
2017-05-26T04:34:01.807Z,1324
2017-05-26T04:35:11.022Z,1316
2017-05-26T04:36:19.913Z,1144
2017-05-26T04:37:29.130Z,1168
2017-05-26T04:38:38.348Z,1332
2017-05-26T04:39:47.246Z,1436
2017-05-26T04:40:56.461Z,1600
2017-05-26T04:42:05.685Z,1564
2017-05-26T04:43:15.249Z,1712
2017-05-26T04:44:24.140Z,1860
2017-05-26T04:45:33.358Z,1920
2017-05-26T04:46:42.255Z,2000
2017-05-26T04:47:51.797Z,1836
2017-05-26T04:49:01.671Z,1984
2017-05-26T04:50:10.564Z,1828
2017-05-26T04:51:20.106Z,1820
2017-05-26T04:52:29.321Z,1820
2017-05-26T04:53:38.866Z,1808
2017-05-26T04:54:48.415Z,1968
2017-05-26T04:55:57.957Z,1916
2017-05-26T04:57:06.955Z,1908
2017-05-26T04:58:16.506Z,2040
2017-05-26T04:59:25.739Z,2112
2017-05-26T05:00:34.958Z,2276
2017-05-26T05:01:44.177Z,2192
2017-05-26T05:02:53.231Z,2108
2017-05-26T05:04:02.456Z,1948
2017-05-26T05:05:11.349Z,1936
2017-05-26T05:06:20.568Z,2220
2017-05-26T05:07:29.790Z,2556
2017-05-26T05:08:39.390Z,2480
2017-05-26T05:09:48.941Z,2272
2017-05-26T05:10:57.836Z,2380
2017-05-26T05:12:06.797Z,2544
2017-05-26T05:13:16.665Z,2488
2017-05-26T05:14:26.212Z,2412
2017-05-26T05:15:35.108Z,2584
2017-05-26T05:16:44.977Z,2648
2017-05-26T05:17:53.873Z,2752
2017-05-26T05:19:03.750Z,2756
2017-05-26T05:20:13.026Z,2772
2017-05-26T05:21:22.241Z,2860
2017-05-26T05:22:31.129Z,3304
2017-05-26T05:23:40.026Z,3592
2017-05-26T05:24:49.579Z,3780
2017-05-26T05:25:59.049Z,3648
2017-05-26T05:27:08.265Z,3840
2017-05-26T05:28:17.484Z,3840
2017-05-26T05:29:26.701Z,4848
2017-05-26T05:30:35.597Z,5024
2017-05-26T05:31:45.219Z,4888
2017-05-26T05:32:54.436Z,4952
2017-05-26T05:34:03.654Z,5044
2017-05-26T05:35:12.872Z,4592
2017-05-26T05:36:21.768Z,4616
2017-05-26T05:37:30.989Z,4560
2017-05-26T05:38:40.210Z,4536
2017-05-26T05:39:49.761Z,4620
2017-05-26T05:40:58.980Z,4944
2017-05-26T05:42:07.876Z,4624
2017-05-26T05:43:17.532Z,4832
2017-05-26T05:44:27.080Z,5120
2017-05-26T05:45:36.304Z,5264
2017-05-26T05:46:45.522Z,5100
2017-05-26T05:47:54.421Z,4176
2017-05-26T05:49:04.211Z,4000
2017-05-26T05:50:13.108Z,4348
2017-05-26T05:51:22.652Z,4724
2017-05-26T05:52:31.869Z,5112
2017-05-26T05:53:41.752Z,5028
2017-05-26T05:54:51.551Z,5120
2017-05-26T05:56:00.497Z,5204
2017-05-26T05:57:09.725Z,5224
2017-05-26T05:58:18.944Z,5684
2017-05-26T05:59:28.168Z,5896
2017-05-26T06:00:37.366Z,6040
2017-05-26T06:01:46.916Z,6100
2017-05-26T06:02:55.813Z,6268
2017-05-26T06:04:05.032Z,6600
2017-05-26T06:05:13.944Z,6468
2017-05-26T06:06:23.261Z,6152
2017-05-26T06:07:32.477Z,6304
2017-05-26T06:08:41.380Z,6424
2017-05-26T06:09:50.600Z,6208
2017-05-26T06:11:00.145Z,5860
2017-05-26T06:12:09.411Z,5284
2017-05-26T06:13:18.960Z,4992
2017-05-26T06:14:28.181Z,4704
2017-05-26T06:15:37.403Z,4812
2017-05-26T06:16:46.622Z,4956
2017-05-26T06:17:55.769Z,5108
2017-05-26T06:19:04.989Z,5448
2017-05-26T06:20:14.206Z,5796
2017-05-26T06:21:23.100Z,5936
2017-05-26T06:22:31.997Z,5936
2017-05-26T06:23:41.093Z,5992
2017-05-26T06:24:50.322Z,6252
2017-05-26T06:25:59.612Z,7028
2017-05-26T06:27:09.153Z,7312
2017-05-26T06:28:18.700Z,6836
2017-05-26T06:29:28.220Z,6956
2017-05-26T06:30:37.443Z,7136
2017-05-26T06:31:46.665Z,7404
2017-05-26T06:32:55.888Z,8036
2017-05-26T06:34:05.112Z,8352
2017-05-26T06:35:14.385Z,7968
2017-05-26T06:36:23.279Z,7856
2017-05-26T06:37:32.821Z,8000
2017-05-26T06:38:42.367Z,8344
2017-05-26T06:39:51.276Z,8536
2017-05-26T06:41:00.225Z,8720
2017-05-26T06:42:09.445Z,8308
2017-05-26T06:43:18.671Z,7496
2017-05-26T06:44:27.892Z,6592
2017-05-26T06:45:37.444Z,6152
2017-05-26T06:46:46.810Z,6284
2017-05-26T06:47:56.043Z,6840
2017-05-26T06:49:05.260Z,7096
2017-05-26T06:50:14.479Z,7176
2017-05-26T06:51:23.699Z,7160
2017-05-26T06:52:32.969Z,7408
2017-05-26T06:53:42.517Z,7872
2017-05-26T06:54:52.390Z,8076
2017-05-26T06:56:01.616Z,7624
2017-05-26T06:57:10.512Z,6972
2017-05-26T06:58:19.406Z,6788
2017-05-26T06:59:28.340Z,6700
2017-05-26T07:00:37.332Z,7016
2017-05-26T07:01:46.295Z,7192
2017-05-26T07:02:55.813Z,7068
2017-05-26T07:04:05.087Z,7116
2017-05-26T07:05:14.346Z,7024
2017-05-26T07:06:23.664Z,6968
2017-05-26T07:07:32.604Z,7084
2017-05-26T07:08:41.593Z,7420
2017-05-26T07:09:50.562Z,7648
2017-05-26T07:10:59.822Z,7812
2017-05-26T07:12:09.042Z,7416
2017-05-26T07:13:17.941Z,7052
2017-05-26T07:14:26.834Z,6800
2017-05-26T07:15:35.730Z,6952
2017-05-26T07:16:45.282Z,8164
2017-05-26T07:17:54.830Z,9172
2017-05-26T07:19:03.734Z,8048
2017-05-26T07:20:12.630Z,7872
2017-05-26T07:21:21.852Z,8624
2017-05-26T07:22:31.070Z,8936
2017-05-26T07:23:40.355Z,8684
2017-05-26T07:24:49.902Z,8900
2017-05-26T07:25:59.187Z,8432
2017-05-26T07:27:08.410Z,8608
2017-05-26T07:28:17.645Z,9168
2017-05-26T07:29:26.851Z,8816
2017-05-26T07:30:36.068Z,8400
2017-05-26T07:31:45.293Z,8272
2017-05-26T07:32:54.573Z,8804
2017-05-26T07:34:03.795Z,9696
2017-05-26T07:35:13.018Z,9152
2017-05-26T07:36:22.233Z,8700
2017-05-26T07:37:31.130Z,8632
2017-05-26T07:38:40.026Z,8636
2017-05-26T07:39:49.582Z,9144
2017-05-26T07:40:59.280Z,10324
2017-05-26T07:42:08.502Z,10060
2017-05-26T07:43:17.725Z,9644
2017-05-26T07:44:27.277Z,9848
2017-05-26T07:45:36.842Z,10192
2017-05-26T07:46:45.790Z,10152
2017-05-26T07:47:55.358Z,10428
2017-05-26T07:49:04.914Z,10408
2017-05-26T07:50:14.149Z,10696
2017-05-26T07:51:23.056Z,10680
2017-05-26T07:52:32.697Z,10080
2017-05-26T07:53:41.935Z,10104
2017-05-26T07:54:51.175Z,10672
2017-05-26T07:56:00.409Z,10796
2017-05-26T07:57:09.633Z,10312
2017-05-26T07:58:18.593Z,9952
2017-05-26T07:59:27.831Z,9308
2017-05-26T08:00:37.067Z,8944
2017-05-26T08:01:45.971Z,8972
2017-05-26T08:02:55.212Z,8620
2017-05-26T08:04:05.306Z,8228
2017-05-26T08:05:14.548Z,8208
2017-05-26T08:06:23.455Z,7812
2017-05-26T08:07:32.692Z,8224
2017-05-26T08:08:41.603Z,9256
2017-05-26T08:09:50.614Z,9080
2017-05-26T08:10:59.846Z,8588
2017-05-26T08:12:09.073Z,8272
2017-05-26T08:13:17.972Z,9044
2017-05-26T08:14:27.206Z,9972
2017-05-26T08:15:37.052Z,8888
2017-05-26T08:16:46.594Z,7704
2017-05-26T08:17:55.817Z,8496
2017-05-26T08:19:04.724Z,8904
2017-05-26T08:20:13.623Z,7512
2017-05-26T08:21:23.247Z,7124
2017-05-26T08:22:32.144Z,6772
2017-05-26T08:23:41.695Z,6368
2017-05-26T08:24:50.594Z,6280
2017-05-26T08:25:59.820Z,6860
2017-05-26T08:27:08.870Z,7892
2017-05-26T08:28:17.770Z,8708
2017-05-26T08:29:27.002Z,9412
2017-05-26T08:30:35.905Z,10320
2017-05-26T08:31:44.805Z,10276
2017-05-26T08:32:54.182Z,10060
2017-05-26T08:34:03.406Z,9592
2017-05-26T08:35:12.957Z,9196
2017-05-26T08:36:22.196Z,8196
2017-05-26T08:37:31.425Z,6712
2017-05-26T08:38:40.332Z,5196
2017-05-26T08:39:50.205Z,4064
2017-05-26T08:40:59.428Z,3532
2017-05-26T08:42:08.974Z,3500
2017-05-26T08:43:17.872Z,3700
2017-05-26T08:44:27.671Z,4128
2017-05-26T08:45:36.894Z,4196
2017-05-26T08:46:46.113Z,4020
2017-05-26T08:47:55.338Z,3892
2017-05-26T08:49:04.561Z,3844
2017-05-26T08:50:13.833Z,3904
2017-05-26T08:51:22.731Z,4208
2017-05-26T08:52:31.630Z,5164
2017-05-26T08:53:40.855Z,5648
2017-05-26T08:54:50.136Z,5588
2017-05-26T08:56:00.163Z,5412
2017-05-26T08:57:09.735Z,4536
2017-05-26T08:58:18.955Z,3940
2017-05-26T08:59:27.855Z,3768
2017-05-26T09:00:37.074Z,3572
2017-05-26T09:01:46.116Z,3620
2017-05-26T09:02:55.021Z,3732
2017-05-26T09:04:03.922Z,3920
2017-05-26T09:05:12.818Z,3952
2017-05-26T09:06:21.717Z,3804
2017-05-26T09:07:30.813Z,3608
2017-05-26T09:08:40.084Z,3520
2017-05-26T09:09:49.639Z,3508
2017-05-26T09:10:58.878Z,3504
2017-05-26T09:12:07.789Z,3364
2017-05-26T09:13:17.776Z,3360
2017-05-26T09:14:26.731Z,3488
2017-05-26T09:15:35.970Z,3572
2017-05-26T09:16:45.196Z,3584
2017-05-26T09:17:54.090Z,3672
2017-05-26T09:19:03.790Z,3836
2017-05-26T09:20:12.685Z,4052
2017-05-26T09:21:21.914Z,4576
2017-05-26T09:22:31.462Z,4688
2017-05-26T09:23:40.683Z,4300
2017-05-26T09:24:50.485Z,3840
2017-05-26T09:25:59.383Z,3264
2017-05-26T09:27:08.284Z,3364
2017-05-26T09:28:17.505Z,3364
2017-05-26T09:29:26.401Z,3380
2017-05-26T09:30:35.555Z,3420
2017-05-26T09:31:44.783Z,3464
2017-05-26T09:32:53.685Z,3456
2017-05-26T09:34:02.589Z,3472
2017-05-26T09:35:11.490Z,3512
2017-05-26T09:36:20.705Z,3596
2017-05-26T09:37:29.618Z,3568
2017-05-26T09:38:38.527Z,3588
2017-05-26T09:39:47.757Z,3780
2017-05-26T09:40:56.991Z,3860
2017-05-26T09:42:06.007Z,3856
2017-05-26T09:43:14.912Z,3880
2017-05-26T09:44:24.144Z,3820
2017-05-26T09:45:33.064Z,3648
2017-05-26T09:46:41.973Z,3416
2017-05-26T09:47:51.185Z,3664
2017-05-26T09:49:00.750Z,3724
2017-05-26T09:50:09.662Z,3672
2017-05-26T09:51:19.222Z,3660
2017-05-26T09:52:28.134Z,3624
2017-05-26T09:53:37.282Z,3556
2017-05-26T09:54:46.829Z,3528
2017-05-26T09:55:56.054Z,3560
2017-05-26T09:57:05.270Z,3612
2017-05-26T09:58:14.512Z,3680
2017-05-26T09:59:24.165Z,3724
2017-05-26T10:00:33.402Z,3632
2017-05-26T10:01:42.305Z,3576
2017-05-26T10:02:51.211Z,3568
2017-05-26T10:04:00.771Z,3652
2017-05-26T10:05:09.836Z,3668
2017-05-26T10:06:18.739Z,3636
2017-05-26T10:07:27.634Z,3676
2017-05-26T10:08:36.859Z,3716
2017-05-26T10:09:45.754Z,3720
2017-05-26T10:10:54.800Z,3688
2017-05-26T10:12:03.701Z,3708
2017-05-26T10:13:12.595Z,3736
2017-05-26T10:14:21.831Z,3744
2017-05-26T10:15:31.060Z,3756
2017-05-26T10:16:40.106Z,3784
2017-05-26T10:17:49.005Z,3796
2017-05-26T10:18:58.228Z,3776
2017-05-26T10:20:07.774Z,3804
2017-05-26T10:21:16.673Z,3876
2017-05-26T10:22:26.122Z,3956
2017-05-26T10:23:35.038Z,3964
2017-05-26T10:24:43.939Z,3992
2017-05-26T10:25:53.828Z,3968
2017-05-26T10:27:03.064Z,3936
2017-05-26T10:28:12.168Z,3964
2017-05-26T10:29:21.716Z,3960
2017-05-26T10:30:30.963Z,3976
2017-05-26T10:31:39.868Z,3960
2017-05-26T10:32:49.096Z,3948
2017-05-26T10:33:58.948Z,3924
2017-05-26T10:35:08.174Z,3924
2017-05-26T10:36:17.735Z,3952
2017-05-26T10:37:26.955Z,3964
2017-05-26T10:38:36.176Z,3968
2017-05-26T10:39:45.400Z,3992
2017-05-26T10:40:54.629Z,4092
2017-05-26T10:42:04.191Z,4148
2017-05-26T10:43:13.417Z,4032
2017-05-26T10:44:22.654Z,3988
2017-05-26T10:45:31.930Z,4012
2017-05-26T10:46:41.172Z,4120
2017-05-26T10:47:50.402Z,4136
2017-05-26T10:48:59.626Z,4132
2017-05-26T10:50:08.533Z,4128
2017-05-26T10:51:18.416Z,4140
2017-05-26T10:52:27.965Z,4140
2017-05-26T10:53:37.207Z,4124
2017-05-26T10:54:46.494Z,4108
2017-05-26T10:55:55.713Z,4192
2017-05-26T10:57:04.986Z,4300
2017-05-26T10:58:14.542Z,4372
2017-05-26T10:59:23.793Z,4424
2017-05-26T11:00:33.678Z,4412
2017-05-26T11:01:42.896Z,4412
2017-05-26T11:02:52.512Z,4428
2017-05-26T11:04:02.061Z,4380
2017-05-26T11:05:10.960Z,4368
2017-05-26T11:06:20.514Z,4352
2017-05-26T11:07:29.420Z,4352
2017-05-26T11:08:38.898Z,4348
2017-05-26T11:09:47.807Z,4360
2017-05-26T11:10:56.708Z,4432
2017-05-26T11:12:05.929Z,4520
2017-05-26T11:13:14.830Z,4520
2017-05-26T11:14:24.632Z,4536
2017-05-26T11:15:34.183Z,4612
2017-05-26T11:16:43.084Z,4644
2017-05-26T11:17:52.958Z,4684
2017-05-26T11:19:02.833Z,4756
2017-05-26T11:20:11.972Z,4880
2017-05-26T11:21:20.868Z,4996
2017-05-26T11:22:30.133Z,5096
2017-05-26T11:23:39.385Z,5944
2017-05-26T11:24:48.290Z,5996
2017-05-26T11:25:57.624Z,6008
2017-05-26T11:27:06.752Z,6028
2017-05-26T11:28:15.992Z,6104
2017-05-26T11:29:25.571Z,6180
2017-05-26T11:30:35.135Z,6192
2017-05-26T11:31:44.837Z,6180
2017-05-26T11:33:25.820Z,6260
2017-05-26T11:34:35.370Z,6416
2017-05-26T11:35:44.271Z,6484
2017-05-26T11:36:53.747Z,6604
2017-05-26T11:38:02.652Z,6672
2017-05-26T11:39:12.200Z,6484
2017-05-26T11:40:21.423Z,6496
2017-05-26T11:41:30.375Z,6668
2017-05-26T11:42:39.302Z,6884
2017-05-26T11:43:49.841Z,7144
2017-05-26T11:44:59.076Z,7272
2017-05-26T11:46:07.977Z,7472
2017-05-26T11:47:16.936Z,7724
2017-05-26T11:48:25.844Z,8080
2017-05-26T11:49:35.455Z,8488
2017-05-26T11:50:44.364Z,9004
2017-05-26T11:51:53.266Z,15968
2017-05-26T11:53:02.495Z,68544
2017-05-26T11:54:11.883Z,95008
2017-05-26T11:55:21.439Z,92512
2017-05-26T11:56:30.379Z,89760
2017-05-26T11:57:39.611Z,95776
2017-05-26T11:58:48.863Z,99968
2017-05-26T11:59:58.667Z,97472
2017-05-26T12:01:07.567Z,94784
2017-05-26T12:02:16.475Z,95168
2017-05-26T12:03:25.704Z,91040
2017-05-26T12:04:34.930Z,90048
2017-05-26T12:05:43.888Z,93664
2017-05-26T12:06:52.804Z,99744
2017-05-26T12:08:02.362Z,100768
2017-05-26T12:09:11.922Z,101504
2017-05-26T12:10:21.157Z,103168
2017-05-26T12:11:30.066Z,99840
2017-05-26T12:12:39.300Z,95360
2017-05-26T12:13:48.907Z,98560
2017-05-26T12:14:57.828Z,103200
2017-05-26T12:16:07.388Z,102432
2017-05-26T12:17:16.676Z,99872
2017-05-26T12:18:25.918Z,102496
2017-05-26T12:19:35.483Z,99136
2017-05-26T12:20:44.398Z,97632
2017-05-26T12:21:53.314Z,97344
2017-05-26T12:23:03.078Z,101856
2017-05-26T12:24:11.994Z,104000
2017-05-26T12:25:20.908Z,103680
2017-05-26T12:26:30.467Z,103232
2017-05-26T12:27:39.379Z,104416
2017-05-26T12:28:48.621Z,105024
2017-05-26T12:29:58.191Z,95968
2017-05-26T12:31:07.752Z,88928
2017-05-26T12:32:17.367Z,87200
2017-05-26T12:33:26.925Z,87264
2017-05-26T12:34:35.990Z,81472
2017-05-26T12:35:45.552Z,68960
2017-05-26T12:36:54.459Z,66720
2017-05-26T12:38:03.370Z,65056
2017-05-26T12:39:12.289Z,56032
2017-05-26T12:40:21.500Z,48640
2017-05-26T12:41:30.747Z,53472
2017-05-26T12:42:39.665Z,62016
2017-05-26T12:43:48.918Z,62400
2017-05-26T12:44:57.831Z,69888
2017-05-26T12:46:06.905Z,80992
2017-05-26T12:47:15.822Z,90656
2017-05-26T12:48:25.396Z,94848
2017-05-26T12:49:34.693Z,98912
2017-05-26T12:50:44.257Z,108928
2017-05-26T12:51:54.559Z,102080
2017-05-26T12:53:03.475Z,95776
2017-05-26T12:54:12.392Z,100640
2017-05-26T12:55:21.308Z,100736
2017-05-26T12:56:30.223Z,99200
2017-05-26T12:57:39.144Z,94208
2017-05-26T12:58:49.043Z,95616
2017-05-26T12:59:58.285Z,90400
2017-05-26T13:01:07.204Z,100160
2017-05-26T13:02:16.123Z,104416
2017-05-26T13:03:25.693Z,100032
2017-05-26T13:04:34.935Z,95424
2017-05-26T13:05:43.919Z,91456
2017-05-26T13:06:53.163Z,96416
2017-05-26T13:08:02.409Z,104000
2017-05-26T13:09:11.806Z,99008
2017-05-26T13:10:20.730Z,93792
2017-05-26T13:11:30.004Z,97792
2017-05-26T13:12:39.280Z,98976
2017-05-26T13:13:48.859Z,96768
2017-05-26T13:14:58.356Z,95552
2017-05-26T13:16:07.664Z,93120
2017-05-26T13:17:16.915Z,96576
2017-05-26T13:18:26.512Z,98688
2017-05-26T13:19:35.756Z,99392
2017-05-26T13:20:45.437Z,94336
2017-05-26T13:21:54.683Z,97216
2017-05-26T13:23:03.927Z,104800
2017-05-26T13:24:13.182Z,102080
2017-05-26T13:25:22.427Z,99168
2017-05-26T13:26:31.447Z,93696
2017-05-26T13:27:40.727Z,91520
2017-05-26T13:28:49.981Z,99744
2017-05-26T13:29:59.240Z,102976
2017-05-26T13:31:08.193Z,101312
2017-05-26T13:32:17.110Z,98368
2017-05-26T13:33:26.031Z,96896
2017-05-26T13:34:35.272Z,97440
2017-05-26T13:35:44.192Z,103104
2017-05-26T13:36:53.136Z,103744
2017-05-26T13:38:02.167Z,95328
2017-05-26T13:39:11.089Z,97472
2017-05-26T13:40:20.012Z,105024
2017-05-26T13:41:28.930Z,98304
2017-05-26T13:42:38.171Z,96384
2017-05-26T13:43:47.097Z,93088
2017-05-26T13:44:56.339Z,93664
2017-05-26T13:46:05.583Z,99136
2017-05-26T13:47:14.501Z,98880
2017-05-26T13:48:23.745Z,91552
2017-05-26T13:49:33.462Z,94240
2017-05-26T13:50:42.380Z,102624
2017-05-26T13:51:51.623Z,102240
2017-05-26T13:53:00.867Z,100736
2017-05-26T13:54:10.117Z,99680
2017-05-26T13:55:19.658Z,100544
2017-05-26T13:56:28.582Z,94848
2017-05-26T13:57:37.505Z,96000
2017-05-26T13:58:46.748Z,94464
2017-05-26T13:59:55.672Z,94912
2017-05-26T14:01:04.696Z,93184
2017-05-26T14:02:13.938Z,93152
2017-05-26T14:03:22.857Z,95328
2017-05-26T14:04:31.777Z,99072
2017-05-26T14:05:41.018Z,97152
2017-05-26T14:06:50.100Z,92128
2017-05-26T14:07:59.350Z,90048
2017-05-26T14:09:08.272Z,95904
2017-05-26T14:10:17.518Z,98176
2017-05-26T14:11:26.763Z,101120
2017-05-26T14:12:35.683Z,102592
2017-05-26T14:13:44.601Z,98240
2017-05-26T14:14:53.524Z,97088
2017-05-26T14:16:02.445Z,98592
2017-05-26T14:17:11.738Z,99328
2017-05-26T14:18:20.656Z,98944
2017-05-26T14:19:29.575Z,98208
2017-05-26T14:20:38.820Z,101024
2017-05-26T14:21:47.744Z,101408
2017-05-26T14:22:56.994Z,97920
2017-05-26T14:24:05.918Z,96160
2017-05-26T14:25:15.589Z,95168
2017-05-26T14:26:24.508Z,98112
2017-05-26T14:27:33.425Z,97792
2017-05-26T14:28:42.376Z,97408
2017-05-26T14:29:51.294Z,98432
2017-05-26T14:31:00.541Z,95744
2017-05-26T14:32:09.460Z,92064
2017-05-26T14:33:18.379Z,93472
2017-05-26T14:34:27.300Z,90784
2017-05-26T14:35:36.544Z,91808
2017-05-26T14:36:45.467Z,95008
2017-05-26T14:37:54.865Z,96928
2017-05-26T14:39:03.792Z,100672
2017-05-26T14:40:13.363Z,96960
2017-05-26T14:41:22.283Z,93024
2017-05-26T14:42:31.852Z,96128
2017-05-26T14:43:41.016Z,94720
2017-05-26T14:44:49.943Z,91040
2017-05-26T14:45:58.861Z,91872
2017-05-26T14:47:07.780Z,93376
2017-05-26T14:48:16.700Z,94464
2017-05-26T14:49:25.925Z,92192
2017-05-26T14:50:35.175Z,94528
2017-05-26T14:51:44.746Z,93312
2017-05-26T14:52:54.642Z,93088
2017-05-26T14:54:03.566Z,96064
2017-05-26T14:55:12.538Z,93344
2017-05-26T14:56:21.472Z,89088
2017-05-26T14:57:30.389Z,94816
2017-05-26T14:58:39.990Z,96480
2017-05-26T14:59:49.242Z,94944
2017-05-26T15:00:58.638Z,91424
2017-05-26T15:02:07.884Z,93024
2017-05-26T15:03:16.873Z,94496
2017-05-26T15:04:26.114Z,91776
2017-05-26T15:05:35.360Z,87904
2017-05-26T15:06:44.428Z,88288
2017-05-26T15:07:53.346Z,88960
2017-05-26T15:09:02.918Z,92288
2017-05-26T15:10:12.489Z,92000
2017-05-26T15:11:21.407Z,85728
2017-05-26T15:12:30.533Z,85216
2017-05-26T15:13:39.448Z,82592
2017-05-26T15:14:48.691Z,81024
2017-05-26T15:15:57.955Z,81024
2017-05-26T15:17:07.201Z,81056
2017-05-26T15:18:16.174Z,79104
2017-05-26T15:19:25.416Z,76608
2017-05-26T15:20:34.677Z,77728
2017-05-26T15:21:43.684Z,80512
2017-05-26T15:22:52.928Z,79136
2017-05-26T15:24:01.948Z,73568
2017-05-26T15:25:10.871Z,75200
2017-05-26T15:26:20.115Z,75744
2017-05-26T15:27:29.360Z,76160
2017-05-26T15:28:38.282Z,75072
2017-05-26T15:29:47.685Z,73536
2017-05-26T15:30:56.601Z,74752
2017-05-26T15:32:05.521Z,75584
2017-05-26T15:33:14.493Z,74784